Time;durP1;ratioP1;P1;durP2;ratioP2;P2;SDS_P1;SDS_P2;PMS_P1;PMS_P2;Temp;Humidity;BMP_temperature;BMP_pressure;BME280_temperature;BME280_humidity;BME280_pressure;Samples;Min_cycle;Max_cycle;Signal;HPM_P1;HPM_P2
2023/04/17 00:01:30;;;;;;;28.40;19.87;;;;;;;8.21;100.00;102570.97;5019124;28;20198;-66
2023/04/17 00:03:56;;;;;;;25.67;18.63;;;;;;;8.20;100.00;102571.75;5024800;28;20914;-66
2023/04/17 00:06:22;;;;;;;29.43;19.63;;;;;;;8.17;100.00;102573.22;5009454;28;20191;-67
2023/04/17 00:08:48;;;;;;;25.27;18.57;;;;;;;8.16;100.00;102566.38;5014707;28;20265;-67
2023/04/17 00:11:14;;;;;;;27.17;19.07;;;;;;;8.10;100.00;102571.09;5014477;28;20293;-66
2023/04/17 00:13:40;;;;;;;26.73;18.33;;;;;;;8.03;100.00;102579.22;5018465;28;20198;-66
2023/04/17 00:16:09;;;;;;;24.83;18.97;;;;;;;8.06;100.00;102574.31;5016145;28;20624;-66
2023/04/17 00:18:35;;;;;;;26.60;18.33;;;;;;;8.05;100.00;102573.41;5020211;28;20697;-66
2023/04/17 00:21:00;;;;;;;24.37;18.33;;;;;;;8.05;100.00;102567.41;5017949;28;20313;-66
2023/04/17 00:23:26;;;;;;;25.93;18.40;;;;;;;8.02;100.00;102574.91;5017005;28;20226;-66
2023/04/17 00:25:52;;;;;;;26.23;18.17;;;;;;;7.96;100.00;102570.34;5017724;28;20201;-66
2023/04/17 00:28:17;;;;;;;25.30;18.67;;;;;;;7.98;100.00;102568.78;5018443;28;20209;-65
2023/04/17 00:30:42;;;;;;;25.77;18.77;;;;;;;7.90;100.00;102559.78;5005768;28;20198;-66
2023/04/17 00:33:08;;;;;;;25.87;18.53;;;;;;;7.89;100.00;102568.25;5021283;28;20640;-66
2023/04/17 00:35:33;;;;;;;24.93;18.83;;;;;;;7.92;100.00;102560.75;5019277;28;20618;-65
2023/04/17 00:37:59;;;;;;;23.30;17.07;;;;;;;7.90;100.00;102572.53;5018619;28;20218;-66
2023/04/17 00:40:24;;;;;;;23.53;17.87;;;;;;;7.87;100.00;102569.81;5004827;28;20249;-66
2023/04/17 00:42:54;;;;;;;25.30;17.87;;;;;;;7.85;100.00;102576.50;5017281;28;20206;-65
2023/04/17 00:45:20;;;;;;;25.10;17.20;;;;;;;7.85;100.00;102573.06;5018194;28;20621;-66
2023/04/17 00:47:48;;;;;;;24.07;16.73;;;;;;;7.85;100.00;102571.41;5003768;28;20572;-68
2023/04/17 00:50:14;;;;;;;23.10;16.33;;;;;;;7.85;100.00;102573.94;5017706;28;20195;-65
2023/04/17 00:52:40;;;;;;;22.83;17.00;;;;;;;7.82;100.00;102573.75;5006546;28;20223;-68
2023/04/17 00:55:06;;;;;;;22.13;16.97;;;;;;;7.85;100.00;102573.06;5015415;28;20238;-65
2023/04/17 00:57:33;;;;;;;23.27;17.20;;;;;;;7.77;100.00;102575.16;5017309;28;20767;-67
2023/04/17 00:59:58;;;;;;;24.83;18.17;;;;;;;7.75;100.00;102574.22;5010232;28;20198;-67
2023/04/17 01:02:24;;;;;;;25.43;17.30;;;;;;;7.76;100.00;102565.75;5023941;28;20195;-67
2023/04/17 01:04:50;;;;;;;24.37;16.30;;;;;;;7.73;100.00;102567.22;5012000;28;20285;-68
2023/04/17 01:07:15;;;;;;;24.27;17.00;;;;;;;7.69;100.00;102570.41;5006522;28;21020;-67
2023/04/17 01:09:41;;;;;;;22.17;16.20;;;;;;;7.68;100.00;102564.44;5021054;28;20202;-67
2023/04/17 01:12:20;;;;;;;24.63;16.67;;;;;;;7.63;100.00;102572.59;5020887;28;20233;-67
2023/04/17 01:14:49;;;;;;;25.87;16.40;;;;;;;7.66;100.00;102568.56;5004709;28;20611;-67
2023/04/17 01:17:14;;;;;;;25.27;16.53;;;;;;;7.57;100.00;102573.13;5006805;28;20645;-66
2023/04/17 01:19:40;;;;;;;23.17;15.47;;;;;;;7.60;100.00;102573.28;5022711;28;20298;-66
2023/04/17 01:22:07;;;;;;;23.80;15.90;;;;;;;7.54;100.00;102570.38;5011375;28;20221;-66
2023/04/17 01:24:32;;;;;;;24.27;16.83;;;;;;;7.55;100.00;102574.69;5016554;28;20253;-66
2023/04/17 01:26:58;;;;;;;24.03;16.00;;;;;;;7.54;100.00;102569.50;5021526;28;20300;-66
2023/04/17 01:29:23;;;;;;;23.90;16.07;;;;;;;7.52;100.00;102571.97;5022427;28;20294;-66
2023/04/17 01:31:49;;;;;;;22.77;17.53;;;;;;;7.49;100.00;102571.78;5011314;28;20190;-67
2023/04/17 01:34:15;;;;;;;34.60;19.87;;;;;;;7.41;100.00;102572.13;5024666;28;20195;-66
2023/04/17 01:36:41;;;;;;;31.43;20.37;;;;;;;7.42;100.00;102584.09;5008550;28;20210;-66
2023/04/17 01:39:07;;;;;;;28.63;19.50;;;;;;;7.45;100.00;102580.03;5017143;28;20269;-66
2023/04/17 01:41:32;;;;;;;28.30;18.43;;;;;;;7.45;100.00;102576.59;5007997;28;20238;-66
2023/04/17 01:43:58;;;;;;;26.33;17.73;;;;;;;7.42;100.00;102582.38;5011307;28;20194;-67
2023/04/17 01:46:23;;;;;;;26.73;18.90;;;;;;;7.42;100.00;102584.09;5006489;28;20298;-67
2023/04/17 01:48:49;;;;;;;35.00;21.53;;;;;;;7.37;100.00;102577.84;5023387;28;20187;-66
2023/04/17 01:51:14;;;;;;;33.73;21.67;;;;;;;7.32;100.00;102581.78;5018405;28;20187;-66
2023/04/17 01:53:40;;;;;;;30.23;21.07;;;;;;;7.30;100.00;102585.88;5008504;28;20202;-66
2023/04/17 01:56:06;;;;;;;27.13;18.53;;;;;;;7.31;100.00;102590.19;5016879;28;20210;-66
2023/04/17 01:58:32;;;;;;;27.37;18.23;;;;;;;7.29;100.00;102592.66;5009388;28;20230;-66
2023/04/17 02:00:58;;;;;;;25.73;17.73;;;;;;;7.32;100.00;102592.81;5022266;28;20206;-66
2023/04/17 02:03:24;;;;;;;21.73;16.07;;;;;;;7.30;100.00;102588.44;5018441;28;20791;-68
2023/04/17 02:05:51;;;;;;;23.80;16.23;;;;;;;7.29;100.00;102591.78;5019228;28;20206;-66
2023/04/17 02:08:16;;;;;;;22.93;16.40;;;;;;;7.25;100.00;102594.91;5015824;28;20265;-66
2023/04/17 02:10:42;;;;;;;24.13;17.07;;;;;;;7.23;100.00;102599.91;5011401;28;20182;-66
2023/04/17 02:13:09;;;;;;;22.93;15.97;;;;;;;7.21;100.00;102598.06;5022063;28;20617;-65
2023/04/17 02:15:36;;;;;;;20.80;15.17;;;;;;;7.19;100.00;102605.59;5019974;28;20198;-66
2023/04/17 02:18:02;;;;;;;21.07;15.33;;;;;;;7.16;100.00;102602.00;5004908;28;20225;-66
2023/04/17 02:20:28;;;;;;;24.60;15.73;;;;;;;7.14;100.00;102598.50;5003200;28;20191;-66
2023/04/17 02:22:57;;;;;;;24.77;15.37;;;;;;;7.13;100.00;102602.69;5007777;28;20257;-66
2023/04/17 02:25:23;;;;;;;23.23;15.63;;;;;;;7.15;100.00;102603.69;5019570;28;20213;-66
2023/04/17 02:27:53;;;;;;;24.00;16.63;;;;;;;7.13;100.00;102605.25;5002180;28;20206;-66
2023/04/17 02:30:18;;;;;;;24.30;16.63;;;;;;;7.11;100.00;102603.38;5019340;28;20702;-68
2023/04/17 02:32:44;;;;;;;24.07;16.47;;;;;;;7.04;100.00;102603.81;5010077;28;20202;-68
2023/04/17 02:35:10;;;;;;;21.67;16.17;;;;;;;7.08;100.00;102603.19;5007715;28;20293;-67
2023/04/17 02:37:36;;;;;;;25.30;17.10;;;;;;;7.07;100.00;102602.31;5007051;28;20313;-67
2023/04/17 02:40:06;;;;;;;25.63;16.90;;;;;;;7.04;100.00;102602.13;5018448;28;20203;-67
2023/04/17 02:42:31;;;;;;;25.07;17.03;;;;;;;7.08;100.00;102604.09;5016643;28;20218;-67
2023/04/17 02:44:57;;;;;;;24.10;17.80;;;;;;;7.09;100.00;102602.44;5002967;28;20285;-67
2023/04/17 02:47:22;;;;;;;26.83;17.67;;;;;;;7.06;100.00;102605.66;5019638;28;20226;-67
2023/04/17 02:49:48;;;;;;;25.90;18.23;;;;;;;7.06;100.00;102608.22;5010731;28;20201;-67
2023/04/17 02:52:13;;;;;;;26.53;18.73;;;;;;;7.03;100.00;102604.56;5015563;28;20214;-67
2023/04/17 02:54:39;;;;;;;28.33;17.93;;;;;;;7.00;100.00;102602.72;4998679;28;20325;-67
2023/04/17 02:57:06;;;;;;;29.10;20.03;;;;;;;7.04;100.00;102606.38;5002814;28;20248;-67
2023/04/17 02:59:31;;;;;;;29.80;20.80;;;;;;;7.02;100.00;102608.81;5005818;28;20827;-67
2023/04/17 03:01:58;;;;;;;30.40;19.83;;;;;;;7.04;100.00;102603.81;5005969;28;20619;-67
2023/04/17 03:04:26;;;;;;;26.47;19.70;;;;;;;7.00;100.00;102604.41;5010894;28;20186;-67
2023/04/17 03:06:52;;;;;;;32.43;19.77;;;;;;;7.02;100.00;102603.72;5012055;28;20692;-66
2023/04/17 03:09:21;;;;;;;26.27;19.00;;;;;;;6.98;100.00;102603.41;4998463;28;20280;-66
2023/04/17 03:11:47;;;;;;;26.70;20.10;;;;;;;6.96;100.00;102607.53;5008347;28;20201;-67
2023/04/17 03:14:13;;;;;;;27.20;19.47;;;;;;;6.93;100.00;102607.34;5004511;28;20218;-67
2023/04/17 03:16:38;;;;;;;30.10;20.73;;;;;;;6.87;100.00;102605.28;5008527;28;20215;-66
2023/04/17 03:19:04;;;;;;;31.10;20.53;;;;;;;6.89;100.00;102605.38;5003036;28;20223;-67
2023/04/17 03:21:30;;;;;;;30.83;21.07;;;;;;;6.85;100.00;102608.53;5007233;28;20197;-66
2023/04/17 03:23:56;;;;;;;29.73;21.67;;;;;;;6.87;100.00;102606.97;5002686;28;20360;-67
2023/04/17 03:26:22;;;;;;;36.30;23.33;;;;;;;6.87;100.00;102609.53;5000477;28;20684;-67
2023/04/17 03:28:48;;;;;;;32.80;22.63;;;;;;;6.86;100.00;102608.63;5011475;28;20198;-66
2023/04/17 03:31:13;;;;;;;31.93;22.27;;;;;;;6.86;100.00;102610.31;5003869;28;20197;-66
2023/04/17 03:33:39;;;;;;;31.67;23.30;;;;;;;6.81;100.00;102604.91;5003575;28;20187;-67
2023/04/17 03:36:05;;;;;;;35.70;22.90;;;;;;;6.82;100.00;102609.22;5004862;28;20200;-66
2023/04/17 03:38:32;;;;;;;33.20;22.20;;;;;;;6.80;100.00;102610.78;5008900;28;20206;-67
2023/04/17 03:40:58;;;;;;;33.13;22.20;;;;;;;6.78;100.00;102602.16;5005520;28;20196;-66
2023/04/17 03:43:24;;;;;;;32.83;22.80;;;;;;;6.76;100.00;102605.41;5005976;28;20679;-66
2023/04/17 03:45:50;;;;;;;34.63;22.70;;;;;;;6.69;100.00;102611.81;5008272;28;20282;-66
2023/04/17 03:48:16;;;;;;;31.13;22.43;;;;;;;6.68;100.00;102610.00;5003481;28;20654;-66
2023/04/17 03:50:43;;;;;;;32.23;22.60;;;;;;;6.71;100.00;102615.31;5005460;28;20244;-66
2023/04/17 03:53:09;;;;;;;38.77;24.53;;;;;;;6.66;100.00;102613.25;5019515;28;20675;-67
2023/04/17 03:55:35;;;;;;;36.27;22.33;;;;;;;6.65;100.00;102607.31;5006672;28;20183;-66
2023/04/17 03:58:01;;;;;;;33.70;23.27;;;;;;;6.65;100.00;102609.84;5012361;28;20307;-67
2023/04/17 04:00:30;;;;;;;33.13;22.70;;;;;;;6.62;100.00;102613.84;5006146;28;20187;-67
2023/04/17 04:02:59;;;;;;;29.43;21.87;;;;;;;6.61;100.00;102605.34;5010521;28;20203;-67
2023/04/17 04:05:29;;;;;;;32.17;22.90;;;;;;;6.60;100.00;102615.41;5005764;28;20194;-67
2023/04/17 04:07:56;;;;;;;34.63;22.00;;;;;;;6.59;100.00;102622.16;5002682;28;20221;-67
2023/04/17 04:10:28;;;;;;;32.17;22.97;;;;;;;6.54;100.00;102617.59;5006177;28;20326;-67
2023/04/17 04:12:55;;;;;;;34.53;22.73;;;;;;;6.53;100.00;102614.16;5009705;28;20191;-67
2023/04/17 04:15:20;;;;;;;34.47;24.27;;;;;;;6.54;100.00;102620.97;5003919;28;20187;-66
2023/04/17 04:17:51;;;;;;;34.40;23.67;;;;;;;6.52;100.00;102620.03;5009551;28;20453;-67
2023/04/17 04:20:17;;;;;;;35.40;24.47;;;;;;;6.50;100.00;102628.34;5001943;28;20277;-67
2023/04/17 04:22:43;;;;;;;35.63;24.70;;;;;;;6.52;100.00;102631.84;5006992;28;20187;-67
2023/04/17 04:25:09;;;;;;;41.23;27.97;;;;;;;6.53;100.00;102638.69;5001692;28;20243;-67
2023/04/17 04:27:48;;;;;;;42.03;28.23;;;;;;;6.60;100.00;102641.75;5007127;28;20214;-67
2023/04/17 04:30:16;;;;;;;46.80;29.73;;;;;;;6.64;100.00;102643.69;5002704;28;20212;-67
2023/04/17 04:32:44;;;;;;;45.27;28.27;;;;;;;6.68;100.00;102649.88;5006731;28;20215;-67
2023/04/17 04:35:13;;;;;;;44.40;29.63;;;;;;;6.69;100.00;102651.63;5007816;28;20201;-67
2023/04/17 04:37:45;;;;;;;47.27;29.30;;;;;;;6.72;100.00;102649.28;5021593;28;20226;-67
2023/04/17 04:40:14;;;;;;;46.07;30.17;;;;;;;6.73;100.00;102644.28;5005305;28;20281;-67
2023/04/17 04:42:48;;;;;;;46.80;30.43;;;;;;;6.75;100.00;102652.00;5009985;28;20241;-67
2023/04/17 04:45:18;;;;;;;47.13;30.43;;;;;;;6.76;100.00;102651.22;5006624;28;20187;-67
2023/04/17 04:47:44;;;;;;;46.40;30.53;;;;;;;6.79;100.00;102651.44;5009250;28;20250;-66
2023/04/17 04:50:10;;;;;;;45.17;30.97;;;;;;;6.79;100.00;102657.41;5006240;28;20226;-67
2023/04/17 04:52:35;;;;;;;48.27;31.67;;;;;;;6.80;100.00;102659.16;5011781;28;20292;-66
2023/04/17 04:55:07;;;;;;;45.20;30.97;;;;;;;6.83;100.00;102659.38;5008622;28;20204;-67
2023/04/17 04:57:36;;;;;;;47.47;30.83;;;;;;;6.84;100.00;102661.13;5011462;28;20211;-67
2023/04/17 05:00:05;;;;;;;47.27;30.23;;;;;;;6.87;100.00;102658.75;5019983;28;20198;-67
2023/04/17 05:02:50;;;;;;;47.47;29.13;;;;;;;6.90;100.00;102655.53;5022879;28;20210;-67
2023/04/17 05:05:19;;;;;;;48.33;30.67;;;;;;;6.94;100.00;102666.00;5008697;28;20191;-67
2023/04/17 05:07:45;;;;;;;46.77;30.93;;;;;;;6.97;100.00;102663.66;5008908;28;20248;-67
2023/04/17 05:10:13;;;;;;;47.70;31.87;;;;;;;7.00;100.00;102668.06;5005703;28;20222;-67
2023/04/17 05:12:44;;;;;;;46.67;31.33;;;;;;;7.00;100.00;102673.16;5009801;28;20195;-67
2023/04/17 05:15:11;;;;;;;45.80;31.30;;;;;;;7.03;100.00;102675.88;5005187;28;20281;-67
2023/04/17 05:17:37;;;;;;;49.97;30.10;;;;;;;7.07;100.00;102675.28;5016885;28;20241;-67
2023/04/17 05:20:14;;;;;;;47.57;31.60;;;;;;;7.10;100.00;102680.59;5012034;28;20201;-67
2023/04/17 05:22:48;;;;;;;46.60;29.10;;;;;;;7.13;100.00;102678.22;5007014;28;20190;-67
2023/04/17 05:25:15;;;;;;;48.40;31.63;;;;;;;7.17;100.00;102680.16;5023188;28;20194;-67
2023/04/17 05:27:41;;;;;;;48.87;31.90;;;;;;;7.22;100.00;102686.44;5005282;28;20254;-67
2023/04/17 05:30:09;;;;;;;44.57;29.90;;;;;;;7.27;100.00;102678.28;5004440;28;20225;-67
2023/04/17 05:32:34;;;;;;;52.57;31.43;;;;;;;7.33;100.00;102688.00;5008953;28;20190;-66
2023/04/17 05:35:11;;;;;;;44.67;29.87;;;;;;;7.37;100.00;102690.81;5007389;28;20256;-66
2023/04/17 05:37:38;;;;;;;45.77;30.70;;;;;;;7.44;100.00;102687.88;5007764;28;20951;-66
2023/04/17 05:40:05;;;;;;;51.30;33.07;;;;;;;7.48;100.00;102689.81;5007110;28;20282;-66
2023/04/17 05:42:33;;;;;;;50.73;32.30;;;;;;;7.55;100.00;102693.63;5018175;28;20201;-67
2023/04/17 05:44:59;;;;;;;51.47;32.27;;;;;;;7.60;100.00;102694.78;5011361;28;20213;-66
2023/04/17 05:47:24;;;;;;;47.83;32.27;;;;;;;7.64;100.00;102692.50;5005465;28;20681;-66
2023/04/17 05:49:53;;;;;;;48.17;31.87;;;;;;;7.68;100.00;102693.56;5007623;28;20203;-67
2023/04/17 05:52:18;;;;;;;53.63;32.87;;;;;;;7.75;100.00;102693.16;5007930;28;20218;-66
2023/04/17 05:54:44;;;;;;;48.93;30.53;;;;;;;7.81;100.00;102698.59;5019988;28;20214;-67
2023/04/17 05:57:09;;;;;;;55.27;35.03;;;;;;;7.88;100.00;102699.06;5012116;28;20220;-67
2023/04/17 05:59:35;;;;;;;48.60;32.43;;;;;;;7.92;100.00;102698.47;5007372;28;20214;-67
2023/04/17 06:02:01;;;;;;;48.57;31.60;;;;;;;7.97;100.00;102696.19;5008894;28;20206;-67
2023/04/17 06:04:28;;;;;;;48.93;32.00;;;;;;;8.02;100.00;102697.34;5005707;28;20590;-67
2023/04/17 06:06:54;;;;;;;47.43;32.20;;;;;;;8.06;100.00;102692.50;5006162;28;20305;-67
2023/04/17 06:09:20;;;;;;;47.07;31.47;;;;;;;8.15;100.00;102694.75;5026702;28;20270;-67
2023/04/17 06:11:47;;;;;;;51.63;33.23;;;;;;;8.25;100.00;102694.50;5005582;28;20194;-67
2023/04/17 06:14:12;;;;;;;53.77;32.37;;;;;;;8.28;100.00;102695.56;5002707;28;20336;-66
2023/04/17 06:16:39;;;;;;;45.50;31.33;;;;;;;8.43;100.00;102696.44;5004059;28;20821;-66
2023/04/17 06:19:06;;;;;;;49.53;30.90;;;;;;;8.51;100.00;102699.44;5000887;28;20214;-67
2023/04/17 06:21:32;;;;;;;48.73;32.20;;;;;;;8.62;100.00;102699.25;5004496;28;20191;-66
2023/04/17 06:23:59;;;;;;;45.43;31.93;;;;;;;8.65;100.00;102704.53;5010071;28;20561;-67
2023/04/17 06:26:24;;;;;;;46.83;30.73;;;;;;;8.77;100.00;102705.25;5017969;28;20249;-67
2023/04/17 06:28:50;;;;;;;46.00;32.17;;;;;;;8.82;100.00;102706.38;5017813;28;20305;-67
2023/04/17 06:31:16;;;;;;;43.60;29.30;;;;;;;8.86;100.00;102703.22;5003502;28;20206;-67
2023/04/17 06:33:41;;;;;;;42.63;29.57;;;;;;;8.87;100.00;102711.72;5004780;28;20672;-67
2023/04/17 06:36:07;;;;;;;45.57;30.60;;;;;;;8.95;100.00;102707.94;5002479;28;20187;-66
2023/04/17 06:38:44;;;;;;;46.17;30.60;;;;;;;8.98;100.00;102708.13;5006950;28;20211;-64
2023/04/17 06:41:09;;;;;;;44.90;30.87;;;;;;;9.07;100.00;102722.25;4999573;28;20244;-67
2023/04/17 06:43:38;;;;;;;41.00;28.67;;;;;;;9.12;100.00;102722.53;5001899;28;20328;-66
2023/04/17 06:46:12;;;;;;;41.97;29.00;;;;;;;9.19;100.00;102724.63;5012049;28;20226;-66
2023/04/17 06:48:37;;;;;;;41.20;28.07;;;;;;;9.17;100.00;102719.41;5019172;28;20246;-67
2023/04/17 06:51:03;;;;;;;43.90;28.10;;;;;;;9.25;100.00;102718.16;5017776;28;20195;-66
2023/04/17 06:53:28;;;;;;;42.90;28.10;;;;;;;9.24;100.00;102720.63;5016236;28;20225;-66
2023/04/17 06:55:53;;;;;;;40.73;28.23;;;;;;;9.29;100.00;102722.66;5020294;28;20273;-65
2023/04/17 06:58:19;;;;;;;40.27;28.03;;;;;;;9.30;100.00;102726.09;5017803;28;20249;-66
2023/04/17 07:00:45;;;;;;;42.20;29.13;;;;;;;9.36;100.00;102723.88;5019987;28;20610;-66
2023/04/17 07:03:12;;;;;;;40.60;27.80;;;;;;;9.48;100.00;102725.41;5023484;28;20202;-66
2023/04/17 07:05:38;;;;;;;41.10;28.33;;;;;;;9.57;100.00;102719.91;5019138;28;20289;-69
2023/04/17 07:08:03;;;;;;;42.40;28.03;;;;;;;9.56;100.00;102728.38;5018292;28;20305;-67
2023/04/17 07:10:29;;;;;;;41.40;28.63;;;;;;;9.71;100.00;102727.50;5007859;28;20197;-67
2023/04/17 07:12:54;;;;;;;35.57;26.90;;;;;;;9.99;100.00;102729.81;5018093;28;20660;-67
2023/04/17 07:15:19;;;;;;;37.70;26.40;;;;;;;10.28;100.00;102730.53;5016249;28;20187;-67
2023/04/17 07:17:45;;;;;;;35.97;25.77;;;;;;;10.32;100.00;102736.72;5017687;28;20815;-68
2023/04/17 07:20:11;;;;;;;36.27;25.27;;;;;;;10.37;100.00;102732.72;5019092;28;20294;-65
2023/04/17 07:22:36;;;;;;;32.40;23.93;;;;;;;10.48;100.00;102737.56;5018675;28;20195;-65
2023/04/17 07:25:02;;;;;;;32.70;24.50;;;;;;;10.48;100.00;102737.56;5020954;28;20198;-68
2023/04/17 07:27:28;;;;;;;34.03;24.27;;;;;;;10.66;100.00;102741.06;5015767;28;20593;-67
2023/04/17 07:29:54;;;;;;;34.27;24.37;;;;;;;10.97;100.00;102740.84;5018355;28;20254;-66
2023/04/17 07:32:20;;;;;;;35.13;23.40;;;;;;;11.12;100.00;102752.72;5019177;28;20227;-67
2023/04/17 07:34:47;;;;;;;32.50;23.10;;;;;;;11.07;100.00;102756.72;5018504;28;20206;-67
2023/04/17 07:37:14;;;;;;;32.00;22.67;;;;;;;10.99;100.00;102747.81;5017118;28;20813;-66
2023/04/17 07:39:40;;;;;;;33.77;22.20;;;;;;;11.03;100.00;102747.16;5023870;28;20272;-66
2023/04/17 07:42:07;;;;;;;28.50;21.53;;;;;;;11.20;100.00;102750.53;5017905;28;20199;-66
2023/04/17 07:44:33;;;;;;;31.50;22.10;;;;;;;11.46;100.00;102738.09;5016190;28;20194;-67
2023/04/17 07:46:59;;;;;;;25.57;20.63;;;;;;;11.50;100.00;102734.88;5018823;28;20271;-67
2023/04/17 07:49:25;;;;;;;31.00;21.87;;;;;;;11.67;100.00;102743.38;5021277;28;20183;-68
2023/04/17 07:51:50;;;;;;;31.83;21.63;;;;;;;11.89;100.00;102740.97;5016971;28;20206;-68
2023/04/17 07:54:15;;;;;;;29.70;20.67;;;;;;;12.21;100.00;102697.00;5021663;28;20217;-68
2023/04/17 07:56:41;;;;;;;27.80;19.90;;;;;;;12.21;100.00;102704.72;5015261;28;20205;-67
2023/04/17 07:59:06;;;;;;;33.93;23.80;;;;;;;12.63;100.00;102698.78;5014485;28;20816;-67
2023/04/17 08:01:32;;;;;;;27.10;20.20;;;;;;;12.95;100.00;102655.53;5016907;28;20234;-67
2023/04/17 08:03:58;;;;;;;24.40;18.07;;;;;;;13.33;100.00;102630.41;5019506;28;20186;-67
2023/04/17 08:06:23;;;;;;;23.40;18.20;;;;;;;13.36;100.00;102617.66;5018794;28;20187;-67
2023/04/17 08:08:49;;;;;;;22.57;17.07;;;;;;;13.50;100.00;102565.00;5009018;28;20198;-66
2023/04/17 08:11:14;;;;;;;21.23;16.20;;;;;;;13.67;100.00;102569.03;5011648;28;20205;-67
2023/04/17 08:13:40;;;;;;;21.73;16.33;;;;;;;13.81;100.00;102542.06;5018000;28;20242;-66
2023/04/17 08:16:06;;;;;;;22.43;16.40;;;;;;;13.96;100.00;102512.53;5022198;28;20205;-66
2023/04/17 08:18:32;;;;;;;21.63;16.73;;;;;;;14.23;100.00;102523.72;5022529;28;20252;-67
2023/04/17 08:20:58;;;;;;;21.53;15.33;;;;;;;14.51;100.00;102513.44;5026733;28;20197;-66
2023/04/17 08:23:23;;;;;;;20.50;16.67;;;;;;;14.73;100.00;102474.56;5023989;28;20220;-66
2023/04/17 08:25:49;;;;;;;24.70;16.47;;;;;;;14.57;100.00;102417.38;5026219;28;20651;-66
2023/04/17 08:28:14;;;;;;;20.77;16.60;;;;;;;14.78;100.00;102407.66;5022682;28;20215;-67
2023/04/17 08:30:39;;;;;;;18.07;15.47;;;;;;;14.99;100.00;102414.28;5024126;28;20198;-66
2023/04/17 08:33:05;;;;;;;21.40;16.50;;;;;;;14.64;100.00;102380.63;5022292;28;20326;-66
2023/04/17 08:35:31;;;;;;;22.47;15.63;;;;;;;15.15;100.00;102420.72;5022652;28;20207;-67
2023/04/17 08:37:58;;;;;;;19.80;15.53;;;;;;;15.45;100.00;102403.44;5024035;28;20292;-66
2023/04/17 08:40:25;;;;;;;20.57;14.33;;;;;;;15.77;100.00;102349.16;5021391;28;20195;-66
2023/04/17 08:42:52;;;;;;;21.63;15.00;;;;;;;15.49;100.00;102320.94;5021891;28;20194;-67
2023/04/17 08:45:19;;;;;;;23.70;15.63;;;;;;;15.82;100.00;102341.47;5020316;28;20671;-68
2023/04/17 08:47:45;;;;;;;20.90;15.73;;;;;;;15.86;100.00;102297.69;5021593;28;20211;-66
2023/04/17 08:50:12;;;;;;;20.77;16.47;;;;;;;15.79;100.00;102290.63;5023019;28;20206;-68
2023/04/17 08:52:42;;;;;;;19.17;15.47;;;;;;;16.05;100.00;102335.09;5021569;28;20317;-69
2023/04/17 08:55:16;;;;;;;24.10;16.23;;;;;;;16.33;100.00;102345.16;5026078;28;20304;-68
2023/04/17 08:58:04;;;;;;;21.03;15.97;;;;;;;16.59;100.00;102338.81;5021076;28;20209;-68
2023/04/17 09:00:38;;;;;;;19.37;14.90;;;;;;;16.89;100.00;102293.69;5019766;28;20190;-67
2023/04/17 09:03:09;;;;;;;23.77;17.70;;;;;;;16.68;100.00;102231.22;5019815;28;20594;-67
2023/04/17 09:05:36;;;;;;;23.43;17.83;;;;;;;16.96;100.00;102241.19;5021497;28;20195;-68
2023/04/17 09:08:25;;;;;;;22.07;16.63;;;;;;;17.47;100.00;102236.81;5022659;28;20222;-69
2023/04/17 09:10:53;;;;;;;24.40;17.57;;;;;;;17.23;100.00;102176.00;5018927;28;20191;-68
2023/04/17 09:13:23;;;;;;;19.73;17.37;;;;;;;17.49;100.00;102213.50;5018665;28;20209;-68
2023/04/17 09:16:07;;;;;;;25.00;17.67;;;;;;;18.01;100.00;102187.38;5019945;28;20281;-68
2023/04/17 09:18:33;;;;;;;21.43;16.80;;;;;;;18.44;100.00;102158.41;5024370;28;20301;-68
2023/04/17 09:21:00;;;;;;;20.80;16.67;;;;;;;18.49;95.84;102090.16;5004323;28;20696;-69
2023/04/17 09:23:28;;;;;;;24.37;17.43;;;;;;;18.49;100.00;102102.25;5020562;28;20190;-69
2023/04/17 09:26:06;;;;;;;22.93;17.30;;;;;;;18.42;92.38;102059.81;5022092;28;20731;-69
2023/04/17 09:28:35;;;;;;;20.07;15.87;;;;;;;19.05;90.14;102043.72;5019300;28;20202;-68
2023/04/17 09:31:05;;;;;;;24.23;16.30;;;;;;;18.49;93.76;102052.94;5020095;28;20198;-68
2023/04/17 09:33:31;;;;;;;18.40;15.80;;;;;;;18.66;95.28;102074.69;5008950;28;20205;-69
2023/04/17 09:36:22;;;;;;;20.07;15.40;;;;;;;19.04;91.57;102053.28;5020009;28;20194;-70
2023/04/17 09:38:48;;;;;;;17.20;14.50;;;;;;;19.16;79.64;101944.22;5023581;28;20218;-68
2023/04/17 09:41:31;;;;;;;15.93;14.03;;;;;;;19.15;76.80;101910.44;5022728;28;20198;-69
2023/04/17 09:44:04;;;;;;;17.53;13.83;;;;;;;19.44;67.89;101844.69;5016364;28;20233;-69
2023/04/17 09:46:46;;;;;;;13.70;12.23;;;;;;;19.26;61.94;101778.91;5021045;28;20195;-70
2023/04/17 09:49:41;;;;;;;16.53;12.27;;;;;;;19.49;63.19;101793.56;5021007;28;20656;-70
2023/04/17 09:52:08;;;;;;;16.30;12.43;;;;;;;19.09;61.64;101788.38;5017482;28;20228;-70
2023/04/17 09:54:37;;;;;;;18.20;13.53;;;;;;;19.15;62.49;101803.97;5018878;28;20188;-69
2023/04/17 09:57:06;;;;;;;16.00;13.50;;;;;;;19.31;69.12;101876.75;5024211;28;20262;-69
2023/04/17 09:59:40;;;;;;;18.03;14.87;;;;;;;19.09;72.56;101911.31;5009602;28;20217;-71
2023/04/17 10:02:10;;;;;;;13.53;10.97;;;;;;;19.01;60.31;101835.13;5019645;28;20248;-71
2023/04/17 10:04:40;;;;;;;12.27;11.07;;;;;;;19.27;60.87;101835.19;5020909;28;20280;-71
2023/04/17 10:07:05;;;;;;;13.40;10.17;;;;;;;19.55;64.10;101888.88;5006190;28;20218;-71
2023/04/17 10:09:31;;;;;;;14.37;11.17;;;;;;;19.56;58.81;101852.47;5018952;28;20217;-69
2023/04/17 10:11:58;;;;;;;13.50;11.33;;;;;;;20.25;59.12;101874.88;5026044;28;20309;-71
2023/04/17 10:14:31;;;;;;;12.63;11.30;;;;;;;19.81;57.74;101864.56;5000749;28;20201;-71
2023/04/17 10:16:57;;;;;;;12.30;9.87;;;;;;;20.09;55.10;101868.84;5018490;28;20312;-70
2023/04/17 10:19:32;;;;;;;12.60;9.57;;;;;;;19.71;55.57;101875.00;5021499;28;20723;-70
2023/04/17 10:22:19;;;;;;;13.37;9.83;;;;;;;19.15;61.95;101973.66;4975334;28;20230;-70
2023/04/17 10:24:52;;;;;;;16.00;11.83;;;;;;;19.00;63.50;102003.91;5022349;28;20647;-70
2023/04/17 10:27:40;;;;;;;14.93;11.33;;;;;;;19.13;63.13;101971.91;5020025;28;20222;-70
2023/04/17 10:30:11;;;;;;;13.20;11.77;;;;;;;18.65;69.01;102053.06;5007275;28;20214;-71
2023/04/17 10:32:43;;;;;;;17.07;12.90;;;;;;;19.09;71.79;102074.94;5019213;28;20204;-70
2023/04/17 10:35:15;;;;;;;14.90;12.27;;;;;;;19.59;69.62;102056.94;5022759;28;20201;-70
2023/04/17 10:37:47;;;;;;;13.77;11.90;;;;;;;19.41;68.55;102056.88;5016930;28;20269;-71
2023/04/17 10:40:33;;;;;;;17.10;12.70;;;;;;;20.35;66.18;102024.91;5018190;28;20201;-71
2023/04/17 10:43:16;;;;;;;16.03;12.93;;;;;;;20.30;61.13;101988.50;5018806;28;20278;-71
2023/04/17 10:46:00;;;;;;;15.80;13.53;;;;;;;20.23;58.51;101973.75;5020949;28;20201;-71
2023/04/17 10:48:44;;;;;;;15.33;11.90;;;;;;;20.33;56.86;101965.09;5021970;28;20222;-71
2023/04/17 10:51:26;;;;;;;14.20;12.70;;;;;;;20.13;55.52;101981.59;5019595;28;20778;-71
2023/04/17 10:53:56;;;;;;;14.60;12.87;;;;;;;19.99;56.76;101999.75;5017112;28;20660;-71
2023/04/17 10:56:43;;;;;;;13.83;12.20;;;;;;;20.29;60.39;102037.94;5016355;28;20210;-71
2023/04/17 10:59:09;;;;;;;11.87;10.67;;;;;;;20.71;53.17;101968.41;5017513;28;20222;-70
2023/04/17 11:01:59;;;;;;;12.70;10.70;;;;;;;20.83;50.24;101933.66;5017990;28;20281;-71
2023/04/17 11:04:32;;;;;;;10.00;8.90;;;;;;;20.82;49.98;101969.22;5011371;28;20202;-71
2023/04/17 11:06:59;;;;;;;9.47;7.30;;;;;;;20.76;44.37;101953.66;5022650;28;20214;-71
2023/04/17 11:09:27;;;;;;;8.27;6.43;;;;;;;20.27;40.39;101980.69;5018524;28;20234;-71
2023/04/17 11:11:53;;;;;;;8.27;6.50;;;;;;;20.50;41.05;102046.56;5021816;28;20686;-70